Time;durP1;ratioP1;P1;durP2;ratioP2;P2;SDS_P1;SDS_P2;PMS_P1;PMS_P2;Temp;Humidity;BMP_temperature;BMP_pressure;BME280_temperature;BME280_humidity;BME280_pressure;Samples;Min_cycle;Max_cycle;Signal;HPM_P1;HPM_P2
2020/12/17 00:01:36;;;;;;;8.60;4.78;;;;;;;6.83;53.27;101811.73;1761743;81;21168;-77
2020/12/17 00:04:05;;;;;;;6.92;4.50;;;;;;;6.86;53.23;101804.88;1759809;81;21463;-77
2020/12/17 00:06:36;;;;;;;10.23;4.42;;;;;;;6.86;53.04;101805.73;1761303;81;22736;-78
2020/12/17 00:09:05;;;;;;;7.67;4.60;;;;;;;6.88;53.02;101810.09;1761763;81;21676;-78
2020/12/17 00:11:34;;;;;;;9.80;4.83;;;;;;;6.87;53.04;101806.58;1761293;81;21185;-77
2020/12/17 00:14:02;;;;;;;7.37;4.60;;;;;;;6.86;53.04;101801.73;1761608;81;21216;-77
2020/12/17 00:16:31;;;;;;;8.18;4.67;;;;;;;6.86;53.09;101805.73;1761727;81;21208;-77
2020/12/17 00:18:58;;;;;;;10.05;5.62;;;;;;;6.85;53.15;101807.99;1761713;81;21805;-77
2020/12/17 00:21:28;;;;;;;8.08;5.05;;;;;;;6.84;53.19;101790.80;1761696;81;21188;-77
2020/12/17 00:23:56;;;;;;;7.45;4.03;;;;;;;6.84;53.21;101790.80;1761628;81;21192;-78
2020/12/17 00:26:25;;;;;;;7.87;4.75;;;;;;;6.85;53.22;101789.83;1761701;81;21078;-77
2020/12/17 00:28:53;;;;;;;8.60;5.60;;;;;;;6.89;53.26;101796.67;1761583;81;21193;-79
2020/12/17 00:31:24;;;;;;;7.75;5.17;;;;;;;6.90;53.28;101797.03;1761459;81;21327;-79
2020/12/17 00:33:51;;;;;;;11.35;6.87;;;;;;;6.91;53.29;101797.44;1761777;81;21169;-79
2020/12/17 00:36:22;;;;;;;11.38;6.17;;;;;;;6.92;53.27;101792.48;1761735;81;21164;-79
2020/12/17 00:38:49;;;;;;;10.78;6.90;;;;;;;6.96;53.23;101801.98;1761820;81;21164;-79
2020/12/17 00:41:19;;;;;;;10.20;6.58;;;;;;;6.97;53.19;101798.34;1761844;81;21121;-78
2020/12/17 00:43:47;;;;;;;9.15;6.00;;;;;;;6.95;53.25;101801.61;1761176;81;21822;-77
2020/12/17 00:46:15;;;;;;;8.78;5.95;;;;;;;6.95;53.32;101805.61;1761271;81;21176;-80
2020/12/17 00:48:44;;;;;;;9.30;5.53;;;;;;;6.96;53.34;101801.12;1761080;81;21234;-79
2020/12/17 00:51:18;;;;;;;8.53;4.97;;;;;;;6.95;53.31;101801.61;1761397;81;21125;-79
2020/12/17 00:53:46;;;;;;;9.85;4.55;;;;;;;6.96;53.28;101801.12;1761696;81;21180;-79
2020/12/17 00:56:14;;;;;;;8.38;5.08;;;;;;;6.94;53.25;101794.55;1761864;81;21543;-80
2020/12/17 00:58:41;;;;;;;7.40;4.60;;;;;;;6.96;53.28;101790.47;1761629;81;21196;-79
2020/12/17 01:01:09;;;;;;;8.78;5.45;;;;;;;6.96;53.29;101793.98;1761692;81;21483;-79
2020/12/17 01:03:39;;;;;;;8.70;5.75;;;;;;;6.96;53.30;101791.33;1761716;81;21508;-79
2020/12/17 01:06:08;;;;;;;10.05;5.92;;;;;;;6.99;53.25;101783.59;1762145;81;21624;-79
2020/12/17 01:08:37;;;;;;;8.00;5.37;;;;;;;7.01;53.21;101789.68;1761987;80;21415;-79
2020/12/17 01:11:05;;;;;;;11.10;6.40;;;;;;;7.06;53.14;101783.08;1771030;80;21660;-79
2020/12/17 01:13:32;;;;;;;9.93;5.72;;;;;;;7.09;53.07;101788.22;1779449;80;21208;-79
2020/12/17 01:16:00;;;;;;;8.88;5.00;;;;;;;7.08;53.06;101783.82;1753181;81;21050;-78
2020/12/17 01:18:28;;;;;;;9.90;5.55;;;;;;;7.08;53.06;101784.30;1766830;80;21227;-78
2020/12/17 01:20:56;;;;;;;8.45;5.45;;;;;;;7.07;53.09;101783.45;1752994;81;21209;-78
2020/12/17 01:23:24;;;;;;;8.30;4.62;;;;;;;7.06;53.09;101779.09;1774280;80;21182;-78
2020/12/17 01:25:52;;;;;;;8.70;5.45;;;;;;;7.06;53.18;101784.89;1761525;80;21534;-78
2020/12/17 01:28:23;;;;;;;8.10;5.15;;;;;;;7.05;53.26;101777.39;1756134;80;21073;-77
2020/12/17 01:30:54;;;;;;;9.18;5.60;;;;;;;7.06;53.24;101775.09;1812026;78;21181;-78
2020/12/17 01:33:22;;;;;;;8.95;5.78;;;;;;;7.08;53.19;101778.48;1783228;79;21438;-80
2020/12/17 01:35:49;;;;;;;6.97;4.92;;;;;;;7.10;53.14;101780.59;1779900;79;21205;-81
2020/12/17 01:38:17;;;;;;;8.30;4.85;;;;;;;7.09;53.09;101781.55;1783821;80;21176;-80
2020/12/17 01:40:48;;;;;;;9.25;5.20;;;;;;;7.08;53.06;101777.16;1788434;80;21189;-80
2020/12/17 01:43:19;;;;;;;8.43;5.17;;;;;;;7.09;53.01;101776.70;1768449;80;21165;-80
2020/12/17 01:45:47;;;;;;;10.98;5.60;;;;;;;7.09;53.00;101773.56;1783787;80;21665;-80
2020/12/17 01:48:18;;;;;;;11.00;6.03;;;;;;;7.11;53.04;101778.30;1753130;81;21178;-79
2020/12/17 01:50:46;;;;;;;9.48;6.00;;;;;;;7.11;53.12;101781.44;1783606;80;21169;-77
2020/12/17 01:53:14;;;;;;;8.70;5.50;;;;;;;7.10;53.17;101777.92;1752876;81;21161;-79
2020/12/17 01:55:42;;;;;;;15.48;8.55;;;;;;;7.11;53.20;101786.77;1783476;80;21197;-78
2020/12/17 01:58:11;;;;;;;8.78;5.95;;;;;;;7.10;53.22;101780.59;1752874;81;22146;-79
2020/12/17 02:00:38;;;;;;;10.03;6.22;;;;;;;7.14;53.12;101769.73;1783864;80;21173;-78
2020/12/17 02:03:07;;;;;;;10.58;6.15;;;;;;;7.17;53.02;101770.84;1762706;80;21145;-79
2020/12/17 02:05:35;;;;;;;8.73;5.78;;;;;;;7.18;53.01;101775.23;1737992;80;21184;-81
2020/12/17 02:08:02;;;;;;;9.80;6.45;;;;;;;7.20;52.98;101777.30;1786797;80;21162;-79
2020/12/17 02:10:30;;;;;;;10.82;6.70;;;;;;;7.20;52.89;101776.82;1782286;80;21312;-79
2020/12/17 02:12:58;;;;;;;10.03;6.65;;;;;;;7.19;52.91;101770.27;1780618;80;21197;-79
2020/12/17 02:15:29;;;;;;;9.80;7.22;;;;;;;7.16;52.88;101767.80;1784094;80;21185;-79
2020/12/17 02:17:57;;;;;;;12.30;7.75;;;;;;;7.14;52.92;101771.92;1787759;80;21169;-78
2020/12/17 02:20:25;;;;;;;12.07;7.60;;;;;;;7.14;53.00;101765.73;1786184;80;21113;-78
2020/12/17 02:22:53;;;;;;;10.40;6.20;;;;;;;7.14;52.99;101767.08;1767062;80;21780;-78
2020/12/17 02:25:21;;;;;;;10.70;6.50;;;;;;;7.15;53.02;101767.44;1766733;80;21116;-78
2020/12/17 02:27:54;;;;;;;10.00;6.62;;;;;;;7.17;53.09;101769.02;1780885;80;21227;-78
2020/12/17 02:30:24;;;;;;;11.78;6.80;;;;;;;7.17;53.10;101774.84;1769239;80;21161;-77
2020/12/17 02:32:51;;;;;;;11.33;7.35;;;;;;;7.16;53.16;101765.14;1761913;80;20999;-79
2020/12/17 02:35:20;;;;;;;16.65;8.08;;;;;;;7.16;53.19;101770.47;1766072;80;21790;-79
2020/12/17 02:37:49;;;;;;;16.93;9.85;;;;;;;7.14;53.24;101762.59;1783383;80;21147;-80
2020/12/17 02:40:17;;;;;;;23.75;11.48;;;;;;;7.16;53.25;101767.80;1769603;80;21210;-79
2020/12/17 02:42:45;;;;;;;32.28;17.35;;;;;;;7.12;53.22;101759.16;1772100;80;21225;-79
2020/12/17 02:45:17;;;;;;;34.30;19.42;;;;;;;7.06;53.33;101767.09;1776600;79;21165;-79
2020/12/17 02:47:44;;;;;;;34.70;18.40;;;;;;;7.01;53.45;101756.38;1781087;79;21545;-78
2020/12/17 02:50:14;;;;;;;38.60;17.92;;;;;;;7.00;53.54;101758.68;1768564;80;21352;-78
2020/12/17 02:52:41;;;;;;;41.30;14.03;;;;;;;7.03;53.52;101764.63;1788468;80;21165;-78
2020/12/17 02:55:09;;;;;;;37.13;14.25;;;;;;;7.02;53.54;101768.26;1788341;80;21153;-80
2020/12/17 02:57:37;;;;;;;32.55;12.35;;;;;;;7.03;53.63;101776.62;1788211;80;21181;-80
2020/12/17 03:00:08;;;;;;;35.73;15.48;;;;;;;7.07;53.65;101770.61;1788182;80;21471;-79
2020/12/17 03:02:36;;;;;;;29.12;12.95;;;;;;;7.07;53.64;101768.80;1788180;80;21700;-80
2020/12/17 03:05:04;;;;;;;28.05;10.38;;;;;;;7.09;53.56;101763.39;1784912;80;21253;-79
2020/12/17 03:07:34;;;;;;;21.95;9.93;;;;;;;7.06;53.65;101764.91;1785616;80;21526;-79
2020/12/17 03:10:06;;;;;;;18.62;8.58;;;;;;;7.05;53.70;101766.73;1767158;80;21178;-79
2020/12/17 03:12:34;;;;;;;15.40;7.95;;;;;;;7.06;53.64;101763.10;1763306;80;21357;-79
2020/12/17 03:15:02;;;;;;;14.68;7.03;;;;;;;7.03;53.65;101761.97;1785129;80;21695;-79
2020/12/17 03:17:30;;;;;;;9.78;5.75;;;;;;;7.01;53.71;101763.05;1767925;80;21205;-79
2020/12/17 03:20:09;;;;;;;8.98;5.47;;;;;;;6.97;53.76;101761.06;1785076;80;21185;-79
2020/12/17 03:22:37;;;;;;;9.63;6.42;;;;;;;6.97;53.77;101761.06;1768196;80;21213;-79
2020/12/17 03:25:08;;;;;;;10.95;5.67;;;;;;;6.97;53.85;101753.06;1764989;80;21918;-80
2020/12/17 03:27:35;;;;;;;10.40;5.95;;;;;;;7.01;53.84;101757.23;1765481;79;21712;-80
2020/12/17 03:30:05;;;;;;;10.00;5.60;;;;;;;7.03;53.69;101755.30;1771536;80;21196;-79
2020/12/17 03:32:33;;;;;;;7.72;5.15;;;;;;;6.99;53.77;101756.47;1785158;80;21189;-79
2020/12/17 03:35:03;;;;;;;9.60;5.17;;;;;;;7.01;53.76;101749.72;1768225;80;21161;-79
2020/12/17 03:37:31;;;;;;;7.85;5.15;;;;;;;7.01;53.81;101749.24;1772773;80;21165;-81
2020/12/17 03:39:58;;;;;;;7.83;4.97;;;;;;;7.02;53.81;101758.94;1765255;80;21162;-81
2020/12/17 03:42:27;;;;;;;6.90;4.80;;;;;;;7.03;53.75;101749.13;1785361;80;21137;-80
2020/12/17 03:44:54;;;;;;;7.15;4.65;;;;;;;7.02;53.70;101742.95;1776090;80;21185;-78
2020/12/17 03:47:22;;;;;;;6.58;4.58;;;;;;;6.98;53.61;101732.13;1783479;80;21153;-77
2020/12/17 03:49:50;;;;;;;9.30;5.95;;;;;;;6.91;53.70;101725.52;1785015;80;22175;-77
2020/12/17 03:52:18;;;;;;;16.10;8.70;;;;;;;6.87;53.82;101724.02;1785963;80;21704;-78
2020/12/17 03:54:47;;;;;;;17.23;9.38;;;;;;;6.84;53.91;101726.88;1785029;80;21023;-80
2020/12/17 03:57:16;;;;;;;21.68;12.45;;;;;;;6.79;54.12;101726.34;1784110;80;21185;-79
2020/12/17 03:59:43;;;;;;;21.05;11.08;;;;;;;6.77;54.27;101730.92;1752004;81;21169;-78
2020/12/17 04:02:11;;;;;;;23.10;11.80;;;;;;;6.81;54.32;101731.06;1783471;80;21825;-78
2020/12/17 04:04:39;;;;;;;25.20;11.35;;;;;;;6.84;54.36;101730.88;1752672;81;21182;-77
2020/12/17 04:07:07;;;;;;;22.13;11.25;;;;;;;6.86;54.35;101732.97;1784396;80;21177;-77
2020/12/17 04:09:38;;;;;;;18.27;9.85;;;;;;;6.84;54.28;101736.20;1753272;81;21157;-77
2020/12/17 04:12:06;;;;;;;19.77;9.23;;;;;;;6.85;54.24;101740.08;1752978;81;21157;-78
2020/12/17 04:14:34;;;;;;;15.63;7.58;;;;;;;6.87;54.24;101742.66;1752874;81;21808;-77
2020/12/17 04:17:02;;;;;;;21.10;9.48;;;;;;;6.89;54.24;101736.73;1752452;81;21049;-78
2020/12/17 04:19:30;;;;;;;18.77;10.43;;;;;;;6.92;54.23;101740.54;1752740;81;21166;-80
2020/12/17 04:21:58;;;;;;;18.25;10.10;;;;;;;6.96;54.16;101743.86;1783316;80;21237;-77
2020/12/17 04:24:26;;;;;;;18.32;11.08;;;;;;;6.99;54.14;101734.30;1752094;81;21659;-78
2020/12/17 04:26:54;;;;;;;21.10;13.43;;;;;;;7.01;54.05;101737.25;1783315;80;21772;-78
2020/12/17 04:29:22;;;;;;;18.87;12.68;;;;;;;7.06;53.88;101732.46;1753159;81;21608;-76
2020/12/17 04:31:49;;;;;;;18.05;13.48;;;;;;;7.09;53.72;101730.94;1783616;80;21505;-75
2020/12/17 04:34:17;;;;;;;22.20;13.22;;;;;;;7.07;53.69;101731.98;1752422;81;21197;-79
2020/12/17 04:36:48;;;;;;;22.40;13.45;;;;;;;7.07;53.54;101726.17;1783835;80;21142;-76
2020/12/17 04:39:17;;;;;;;22.80;13.03;;;;;;;7.05;53.58;101736.09;1753427;80;21829;-77
2020/12/17 04:41:47;;;;;;;19.67;11.55;;;;;;;7.04;53.60;101733.06;1783424;80;21213;-76
2020/12/17 04:44:20;;;;;;;20.52;11.08;;;;;;;7.05;53.51;101728.58;1810721;79;21215;-76
2020/12/17 04:47:00;;;;;;;21.00;11.80;;;;;;;7.06;53.47;101733.80;1812109;79;21176;-76
2020/12/17 04:49:43;;;;;;;21.35;12.20;;;;;;;7.08;53.48;101743.00;1811632;79;21164;-76
2020/12/17 04:52:11;;;;;;;22.90;12.80;;;;;;;7.09;53.43;101746.92;1812740;79;22291;-76
2020/12/17 04:54:38;;;;;;;21.35;11.15;;;;;;;7.15;53.39;101751.45;1757858;79;21192;-77
2020/12/17 04:57:09;;;;;;;15.63;8.25;;;;;;;7.16;53.32;101757.15;1811815;79;21167;-78
2020/12/17 04:59:49;;;;;;;13.90;7.72;;;;;;;7.19;53.32;101756.95;1812707;79;21176;-80
2020/12/17 05:02:20;;;;;;;17.50;9.38;;;;;;;7.17;53.30;101754.84;1812410;79;21168;-77
2020/12/17 05:04:50;;;;;;;14.35;9.63;;;;;;;7.15;53.29;101758.11;1801811;79;22297;-79
2020/12/17 05:07:22;;;;;;;12.58;8.58;;;;;;;7.12;53.33;101768.00;1797643;79;21045;-78
2020/12/17 05:09:51;;;;;;;21.57;13.30;;;;;;;7.12;53.33;101769.34;1802742;77;21168;-80
2020/12/17 05:12:19;;;;;;;28.23;18.05;;;;;;;7.12;53.36;101768.00;1797441;79;21219;-79
2020/12/17 05:14:48;;;;;;;29.20;19.32;;;;;;;7.14;53.41;101772.41;1792453;79;21192;-80
2020/12/17 05:17:16;;;;;;;34.35;22.90;;;;;;;7.15;53.41;101768.77;1773790;80;22187;-79
2020/12/17 05:19:44;;;;;;;33.88;22.77;;;;;;;7.17;53.36;101774.84;1778004;80;21512;-76
2020/12/17 05:22:14;;;;;;;34.33;23.25;;;;;;;7.17;53.35;101779.69;1809742;79;21184;-77
2020/12/17 05:24:43;;;;;;;31.07;22.02;;;;;;;7.17;53.27;101783.68;1805298;77;21184;-77
2020/12/17 05:27:11;;;;;;;29.25;20.20;;;;;;;7.16;53.31;101784.64;1810854;79;21204;-77
2020/12/17 05:29:40;;;;;;;29.20;20.00;;;;;;;7.17;53.31;101789.01;1810503;79;21350;-77
2020/12/17 05:32:09;;;;;;;24.98;17.02;;;;;;;7.16;53.30;101789.13;1810625;79;21184;-79
2020/12/17 05:34:38;;;;;;;24.40;15.43;;;;;;;7.18;53.28;101793.89;1788776;79;21239;-78
2020/12/17 05:37:07;;;;;;;17.25;10.68;;;;;;;7.17;53.27;101799.67;1805427;79;21166;-76
2020/12/17 05:39:42;;;;;;;20.23;11.05;;;;;;;7.15;53.31;101790.09;1799673;77;21175;-78
2020/12/17 05:42:13;;;;;;;16.07;9.95;;;;;;;7.16;53.33;101789.13;1776893;79;21358;-80
2020/12/17 05:44:41;;;;;;;18.17;10.58;;;;;;;7.18;53.37;101792.55;1798683;79;21114;-77
2020/12/17 05:47:13;;;;;;;17.87;10.95;;;;;;;7.18;53.40;101789.89;1806994;79;21439;-77
2020/12/17 05:49:41;;;;;;;19.20;11.28;;;;;;;7.19;53.43;101802.25;1800333;79;21123;-77
2020/12/17 05:52:14;;;;;;;17.52;11.60;;;;;;;7.20;53.42;101806.13;1704873;83;21187;-77
2020/12/17 05:54:56;;;;;;;17.82;11.22;;;;;;;7.19;53.41;101807.09;1777170;78;21361;-76
2020/12/17 05:57:24;;;;;;;19.48;11.57;;;;;;;7.19;53.44;101814.24;1784603;80;21128;-76
2020/12/17 05:59:56;;;;;;;20.70;12.33;;;;;;;7.18;53.51;101809.39;1775055;80;21105;-78
2020/12/17 06:02:29;;;;;;;19.48;12.28;;;;;;;7.19;53.53;101811.09;1784675;78;21461;-78
2020/12/17 06:05:09;;;;;;;17.92;10.70;;;;;;;7.18;53.52;101812.54;1780677;78;21224;-80
2020/12/17 06:07:49;;;;;;;18.10;11.93;;;;;;;7.19;53.57;101812.91;1758309;80;21335;-78
2020/12/17 06:10:29;;;;;;;15.20;11.18;;;;;;;7.21;53.57;101806.50;1774587;79;21635;-78
2020/12/17 06:12:59;;;;;;;19.57;12.03;;;;;;;7.23;53.50;101814.41;1793925;77;21348;-77
2020/12/17 06:15:29;;;;;;;20.72;12.55;;;;;;;7.25;53.47;101811.16;1785488;79;21215;-77
2020/12/17 06:18:01;;;;;;;18.32;11.35;;;;;;;7.25;53.45;101820.00;1787740;77;21196;-77
2020/12/17 06:20:31;;;;;;;18.35;11.05;;;;;;;7.27;53.46;101820.77;1789598;79;22664;-79
2020/12/17 06:23:04;;;;;;;16.65;10.55;;;;;;;7.27;53.45;101816.77;1782547;78;21153;-78
2020/12/17 06:25:35;;;;;;;22.10;12.53;;;;;;;7.27;53.44;101822.09;1773062;79;21121;-78
2020/12/17 06:28:04;;;;;;;20.85;11.68;;;;;;;7.25;53.46;101818.66;1778778;78;21130;-78
2020/12/17 06:30:34;;;;;;;22.40;12.88;;;;;;;7.24;53.49;101816.12;1771855;79;21577;-76
2020/12/17 06:33:04;;;;;;;22.00;14.15;;;;;;;7.23;53.52;101820.59;1794098;77;22047;-78
2020/12/17 06:36:04;;;;;;;;;;;;;;;;;;;;;
2020/12/17 06:38:44;;;;;;;28.70;18.42;;;;;;;7.26;53.67;101824.36;1769230;79;21138;-78
2020/12/17 06:41:35;;;;;;;31.07;19.20;;;;;;;7.25;53.67;101831.14;1768662;79;21113;-80
2020/12/17 06:44:31;;;;;;;34.33;20.30;;;;;;;7.26;53.66;101833.69;1756792;79;21086;-78
2020/12/17 06:47:29;;;;;;;30.00;19.12;;;;;;;7.32;53.60;101833.78;1822567;76;22785;-80
2020/12/17 06:50:32;;;;;;;25.62;16.77;;;;;;;7.30;53.60;101828.53;1742098;80;21101;-79
2020/12/17 06:53:11;;;;;;;30.10;16.57;;;;;;;7.28;53.63;101834.94;1718179;81;21489;-76
2020/12/17 06:55:45;;;;;;;29.42;15.65;;;;;;;7.28;53.64;101837.13;1794337;77;21632;-78
2020/12/17 06:58:22;;;;;;;36.17;20.20;;;;;;;7.29;53.65;101839.31;1797376;77;21617;-78
2020/12/17 07:00:52;;;;;;;37.63;24.12;;;;;;;7.30;53.68;101836.53;1792749;77;21662;-78
2020/12/17 07:03:46;;;;;;;44.48;28.02;;;;;;;7.33;53.71;101838.15;1804338;77;21915;-80
2020/12/17 07:06:23;;;;;;;48.55;30.05;;;;;;;7.34;53.70;101841.19;1786587;77;21113;-76
2020/12/17 07:08:57;;;;;;;49.65;30.55;;;;;;;7.35;53.69;101844.22;1800358;77;21157;-76
2020/12/17 07:11:45;;;;;;;47.55;29.35;;;;;;;7.34;53.67;101846.03;1797389;77;21080;-77
2020/12/17 07:14:29;;;;;;;53.33;30.48;;;;;;;7.34;53.66;101845.18;1798300;77;21096;-76
2020/12/17 07:17:02;;;;;;;67.32;35.83;;;;;;;7.34;53.63;101843.36;1758298;79;21143;-76
2020/12/17 07:19:44;;;;;;;67.20;33.25;;;;;;;7.34;53.66;101851.36;1746019;80;21956;-78
2020/12/17 07:22:21;;;;;;;60.95;30.80;;;;;;;7.33;53.68;101855.47;1796437;77;21113;-78
2020/12/17 07:24:51;;;;;;;53.83;28.87;;;;;;;7.33;53.71;101850.14;1765650;77;21098;-77
2020/12/17 07:27:23;;;;;;;59.42;31.48;;;;;;;7.33;53.71;101844.81;1796850;77;21082;-77
2020/12/17 07:30:06;;;;;;;55.65;28.15;;;;;;;7.33;53.77;101848.81;1794235;77;21085;-78
2020/12/17 07:32:39;;;;;;;61.83;33.85;;;;;;;7.36;53.77;101848.61;1800212;77;21564;-78
2020/12/17 07:35:12;;;;;;;53.42;30.25;;;;;;;7.36;53.78;101844.61;1776420;77;21620;-78
2020/12/17 07:37:48;;;;;;;43.25;23.18;;;;;;;7.37;53.76;101851.16;1795252;77;21118;-77
2020/12/17 07:40:39;;;;;;;28.27;17.70;;;;;;;7.38;53.72;101849.35;1795430;77;21109;-78
2020/12/17 07:43:15;;;;;;;27.45;17.30;;;;;;;7.34;53.70;101851.84;1796550;77;21077;-78
2020/12/17 07:45:54;;;;;;;25.70;15.55;;;;;;;7.27;53.73;101851.90;1792700;78;21314;-78
2020/12/17 07:48:38;;;;;;;22.35;15.65;;;;;;;7.26;53.84;101851.50;1779493;79;21125;-78
2020/12/17 07:51:16;;;;;;;28.98;20.43;;;;;;;7.27;53.85;101851.90;1784946;78;22148;-80
2020/12/17 07:53:49;;;;;;;40.67;26.00;;;;;;;7.28;53.95;101853.12;1758314;79;21157;-79
2020/12/17 07:56:17;;;;;;;51.20;35.38;;;;;;;7.30;54.04;101855.19;1786172;79;21094;-80
2020/12/17 07:58:46;;;;;;;60.23;40.35;;;;;;;7.33;53.95;101856.80;1782278;78;21191;-79
2020/12/17 08:01:15;;;;;;;65.28;42.03;;;;;;;7.34;53.93;101855.36;1730771;81;21179;-79
2020/12/17 08:03:53;;;;;;;64.58;41.90;;;;;;;7.37;53.91;101847.65;1724706;81;21109;-79
2020/12/17 08:06:24;;;;;;;63.25;40.10;;;;;;;7.39;53.92;101852.38;1734916;80;21146;-79
2020/12/17 08:09:04;;;;;;;63.58;39.35;;;;;;;7.41;53.91;101850.97;1724244;80;21137;-80
2020/12/17 08:11:34;;;;;;;50.92;32.98;;;;;;;7.43;53.86;101845.05;1778158;78;22071;-80
2020/12/17 08:14:05;;;;;;;47.17;31.90;;;;;;;7.43;53.92;101851.70;1778462;78;21129;-78
2020/12/17 08:16:34;;;;;;;53.23;36.50;;;;;;;7.40;53.92;101846.09;1779397;78;21133;-78
2020/12/17 08:19:03;;;;;;;58.87;40.88;;;;;;;7.42;53.95;101845.52;1772669;78;21015;-78
2020/12/17 08:21:32;;;;;;;53.90;39.50;;;;;;;7.43;53.93;101846.38;1778329;78;21102;-83
2020/12/17 08:24:10;;;;;;;52.80;37.23;;;;;;;7.47;53.92;101853.21;1783556;78;21125;-80
2020/12/17 08:26:41;;;;;;;52.80;36.53;;;;;;;7.47;53.92;101843.40;1781336;78;21141;-77
2020/12/17 08:29:11;;;;;;;56.80;36.90;;;;;;;7.46;53.80;101840.36;1782101;78;21133;-77
2020/12/17 08:31:44;;;;;;;54.60;36.93;;;;;;;7.48;53.79;101841.09;1780132;78;21119;-78
2020/12/17 08:34:12;;;;;;;54.30;37.75;;;;;;;7.50;53.78;101843.20;1779591;78;21169;-77
2020/12/17 08:36:45;;;;;;;42.20;29.45;;;;;;;7.46;53.62;101837.70;1757673;78;21462;-77
2020/12/17 08:39:21;;;;;;;38.42;26.82;;;;;;;7.35;53.76;101842.88;1786493;78;21236;-80
2020/12/17 08:42:02;;;;;;;43.52;31.12;;;;;;;7.27;54.04;101837.24;1779236;78;21106;-78
2020/12/17 08:44:32;;;;;;;38.90;26.87;;;;;;;7.28;54.18;101848.27;1727409;81;21612;-77
2020/12/17 08:47:02;;;;;;;34.70;24.37;;;;;;;7.27;54.18;101842.57;1723171;81;21102;-78
2020/12/17 08:49:31;;;;;;;36.63;23.67;;;;;;;7.22;54.28;101842.88;1742091;80;21379;-76
2020/12/17 08:51:58;;;;;;;31.68;22.07;;;;;;;7.23;54.41;101837.06;1726970;80;21153;-78
2020/12/17 08:54:32;;;;;;;24.90;18.85;;;;;;;7.25;54.46;101836.47;1784985;78;21384;-79
2020/12/17 08:57:07;;;;;;;25.75;17.32;;;;;;;7.27;54.42;101835.42;1724504;81;21107;-78
2020/12/17 08:59:39;;;;;;;23.00;15.75;;;;;;;7.30;54.42;101840.53;1725812;80;21998;-80
2020/12/17 09:02:07;;;;;;;24.18;16.85;;;;;;;7.27;54.35;101843.42;1777193;78;21361;-77
2020/12/17 09:04:35;;;;;;;22.55;14.55;;;;;;;7.29;54.42;101844.64;1780459;79;21624;-82
2020/12/17 09:07:02;;;;;;;25.95;17.95;;;;;;;7.31;54.37;101840.05;1787044;78;21129;-78
2020/12/17 09:09:31;;;;;;;28.75;18.92;;;;;;;7.26;54.41;101840.84;1782879;78;21097;-77
2020/12/17 09:12:01;;;;;;;30.92;19.65;;;;;;;7.22;54.57;101842.88;1781926;78;21106;-76
2020/12/17 09:14:30;;;;;;;28.55;19.15;;;;;;;7.27;54.59;101840.76;1782104;78;21363;-76
2020/12/17 09:17:15;;;;;;;27.65;18.07;;;;;;;7.31;54.46;101840.05;1786730;78;21467;-78
2020/12/17 09:19:43;;;;;;;29.72;18.45;;;;;;;7.30;54.51;101839.67;1788760;78;21101;-77
2020/12/17 09:22:15;;;;;;;30.08;20.17;;;;;;;7.31;54.52;101840.05;1781164;78;21117;-78
2020/12/17 09:25:04;;;;;;;31.97;21.33;;;;;;;7.30;54.51;101841.02;1793554;77;21713;-79
2020/12/17 09:27:34;;;;;;;35.68;20.72;;;;;;;7.34;54.50;101849.18;1782590;78;21188;-78
2020/12/17 09:30:19;;;;;;;54.20;36.15;;;;;;;7.41;54.57;101846.48;1788662;78;20987;-80
2020/12/17 09:32:59;;;;;;;51.10;31.90;;;;;;;7.48;54.52;101845.09;1780156;78;21513;-78
2020/12/17 09:35:37;;;;;;;56.63;34.70;;;;;;;7.54;54.42;101846.48;1777157;78;21113;-78
2020/12/17 09:38:10;;;;;;;59.18;37.93;;;;;;;7.58;54.36;101846.66;1780198;78;21086;-77
2020/12/17 09:40:38;;;;;;;59.95;36.42;;;;;;;7.62;54.33;101845.00;1780865;78;21356;-77
2020/12/17 09:43:15;;;;;;;58.50;37.10;;;;;;;7.68;54.27;101846.42;1785217;78;21095;-76
2020/12/17 09:45:48;;;;;;;60.25;37.83;;;;;;;7.70;54.21;101847.16;1786848;78;21141;-77
2020/12/17 09:48:28;;;;;;;58.92;37.58;;;;;;;7.75;54.08;101842.84;1780934;78;21130;-76
2020/12/17 09:51:06;;;;;;;54.45;32.23;;;;;;;7.78;54.06;101847.97;1781905;78;21078;-76
2020/12/17 09:53:43;;;;;;;57.15;35.58;;;;;;;7.80;54.00;101850.03;1782083;78;21357;-78
2020/12/17 09:56:23;;;;;;;49.58;31.15;;;;;;;7.81;54.00;101855.28;1778952;78;21340;-76
2020/12/17 09:58:59;;;;;;;40.00;28.87;;;;;;;7.84;53.87;101852.87;1781266;78;21117;-76
2020/12/17 10:01:27;;;;;;;37.40;26.80;;;;;;;7.86;53.77;101849.15;1779153;78;21094;-76
2020/12/17 10:03:55;;;;;;;38.10;23.73;;;;;;;7.88;53.66;101851.70;1781123;78;21783;-77
2020/12/17 10:06:23;;;;;;;36.35;22.70;;;;;;;7.88;53.66;101853.88;1778863;78;21317;-76
2020/12/17 10:08:59;;;;;;;30.62;20.08;;;;;;;7.88;53.64;101845.88;1778276;78;21141;-77
2020/12/17 10:11:31;;;;;;;27.17;17.70;;;;;;;7.90;53.66;101844.43;1778935;78;21469;-78
2020/12/17 10:14:00;;;;;;;26.75;16.87;;;;;;;7.91;53.63;101840.83;1775935;78;21122;-76
2020/12/17 10:16:29;;;;;;;24.92;17.45;;;;;;;7.90;53.53;101835.09;1779405;78;21126;-76
2020/12/17 10:18:58;;;;;;;22.70;15.15;;;;;;;7.90;53.54;101832.42;1777255;78;21299;-76
2020/12/17 10:21:25;;;;;;;25.05;16.87;;;;;;;7.91;53.54;101833.30;1783277;78;21162;-76
2020/12/17 10:23:53;;;;;;;23.77;14.28;;;;;;;7.93;53.51;101835.38;1727750;81;21133;-76
2020/12/17 10:26:21;;;;;;;25.27;17.07;;;;;;;7.94;53.45;101826.40;1721931;80;21138;-76
2020/12/17 10:28:49;;;;;;;31.10;18.12;;;;;;;7.96;53.41;101820.01;1782032;78;22031;-76
2020/12/17 10:31:17;;;;;;;39.58;19.73;;;;;;;7.99;53.29;101823.77;1777168;78;22960;-76
2020/12/17 10:33:45;;;;;;;29.27;16.85;;;;;;;8.01;53.32;101820.53;1779159;78;21117;-77
2020/12/17 10:36:14;;;;;;;29.02;18.00;;;;;;;8.02;53.30;101822.23;1781442;78;21118;-77
2020/12/17 10:38:50;;;;;;;28.15;18.62;;;;;;;8.02;53.26;101816.05;1776853;78;21114;-78
2020/12/17 10:41:24;;;;;;;24.25;15.45;;;;;;;8.01;53.23;101817.87;1782593;78;21115;-77
2020/12/17 10:43:58;;;;;;;22.25;14.83;;;;;;;8.01;53.18;101820.53;1753200;78;21383;-79
2020/12/17 10:46:40;;;;;;;23.32;15.00;;;;;;;8.03;53.21;101813.75;1796698;78;22920;-78
2020/12/17 10:49:14;;;;;;;41.15;22.20;;;;;;;7.97;53.26;101813.70;1758297;79;21213;-76
2020/12/17 10:51:51;;;;;;;26.95;16.85;;;;;;;7.97;53.38;101811.52;1762369;79;22622;-78
2020/12/17 10:54:22;;;;;;;27.25;17.75;;;;;;;8.00;53.36;101817.98;1765876;80;21247;-78
2020/12/17 10:56:52;;;;;;;28.15;17.57;;;;;;;8.04;53.32;101812.33;1766825;79;21212;-76
2020/12/17 10:59:21;;;;;;;28.10;17.30;;;;;;;8.07;53.33;101812.09;1765865;79;21600;-75
2020/12/17 11:01:49;;;;;;;23.32;16.50;;;;;;;8.09;53.26;101814.18;1765989;79;21579;-76
2020/12/17 11:04:17;;;;;;;24.57;16.10;;;;;;;8.11;53.19;101817.58;1787246;78;21439;-76
2020/12/17 11:06:45;;;;;;;23.02;15.32;;;;;;;8.08;53.12;101812.48;1755667;79;21404;-77
2020/12/17 11:09:13;;;;;;;25.37;15.63;;;;;;;8.07;53.15;101816.09;1758995;79;21636;-76
2020/12/17 11:11:41;;;;;;;23.12;14.68;;;;;;;8.05;53.14;101815.36;1764608;79;21203;-78
2020/12/17 11:14:09;;;;;;;25.82;15.18;;;;;;;8.04;53.16;101816.33;1754041;79;21800;-78
2020/12/17 11:16:37;;;;;;;20.50;13.50;;;;;;;8.02;53.15;101815.56;1785284;78;21378;-77
2020/12/17 11:19:09;;;;;;;24.82;15.50;;;;;;;8.00;53.20;101814.83;1767236;79;21228;-77
2020/12/17 11:21:37;;;;;;;26.17;16.85;;;;;;;8.01;53.33;101810.34;1795895;78;21203;-80
2020/12/17 11:24:05;;;;;;;25.35;15.68;;;;;;;8.02;53.32;101807.56;1790448;78;21226;-79
2020/12/17 11:26:51;;;;;;;25.08;16.07;;;;;;;8.04;53.32;101820.33;1791183;78;21200;-79
2020/12/17 11:29:21;;;;;;;27.07;16.48;;;;;;;8.06;53.34;101822.88;1768282;80;22783;-76
2020/12/17 11:31:51;;;;;;;25.90;16.42;;;;;;;8.05;53.37;101820.69;1765526;80;21220;-77
2020/12/17 11:34:19;;;;;;;25.97;16.15;;;;;;;8.05;53.36;101822.03;1765107;80;21188;-77
2020/12/17 11:36:46;;;;;;;24.67;15.28;;;;;;;8.05;53.36;101823.36;1765193;80;21189;-78
2020/12/17 11:39:14;;;;;;;23.30;14.83;;;;;;;8.06;53.29;101821.06;1769640;79;21941;-77
2020/12/17 11:41:59;;;;;;;26.17;15.40;;;;;;;8.07;53.27;101818.76;1770646;80;22265;-76